createdAt,value
2017-04-20T00:00:15.139Z,-1.44
2017-04-20T00:01:10.210Z,-1.44
2017-04-20T00:02:04.213Z,-1.43
2017-04-20T00:03:04.206Z,-1.44
2017-04-20T00:04:04.235Z,-1.48
2017-04-20T00:04:59.222Z,-1.54
2017-04-20T00:05:53.271Z,-1.54
2017-04-20T00:06:53.342Z,-1.56
2017-04-20T00:07:48.351Z,-1.56
2017-04-20T00:08:43.423Z,-1.53
2017-04-20T00:09:44.411Z,-1.52
2017-04-20T00:10:45.339Z,-1.48
2017-04-20T00:11:40.407Z,-1.48
2017-04-20T00:12:40.450Z,-1.53
2017-04-20T00:13:40.508Z,-1.55
2017-04-20T00:14:40.469Z,-1.58
2017-04-20T00:15:35.571Z,-1.57
2017-04-20T00:16:30.539Z,-1.56
2017-04-20T00:17:30.585Z,-1.50
2017-04-20T00:18:25.642Z,-1.49
2017-04-20T00:19:20.608Z,-1.50
2017-04-20T00:20:20.639Z,-1.52
2017-04-20T00:21:15.662Z,-1.54
2017-04-20T00:22:10.665Z,-1.58
2017-04-20T00:23:11.717Z,-1.59
2017-04-20T00:24:11.694Z,-1.64
2017-04-20T00:25:11.754Z,-1.65
2017-04-20T00:26:11.730Z,-1.68
2017-04-20T00:27:12.799Z,-1.70
2017-04-20T00:28:13.788Z,-1.74
2017-04-20T00:29:08.088Z,-1.76
2017-04-20T00:30:07.823Z,-1.78
2017-04-20T00:31:02.876Z,-1.82
2017-04-20T00:32:02.906Z,-1.82
2017-04-20T00:33:02.921Z,-1.82
2017-04-20T00:34:02.914Z,-1.86
2017-04-20T00:34:56.936Z,-1.86
2017-04-20T00:35:57.025Z,-1.86
2017-04-20T00:36:52.079Z,-1.84
2017-04-20T00:37:47.033Z,-1.82
2017-04-20T00:38:47.007Z,-1.80
2017-04-20T00:39:42.039Z,-1.79
2017-04-20T00:40:37.144Z,-1.76
2017-04-20T00:41:38.111Z,-1.75
2017-04-20T00:42:38.331Z,-1.75
2017-04-20T00:43:33.149Z,-1.72
2017-04-20T00:44:33.224Z,-1.74
2017-04-20T00:45:27.224Z,-1.74
2017-04-20T00:46:27.239Z,-1.72
2017-04-20T00:47:22.260Z,-1.74
2017-04-20T00:48:17.372Z,-1.75
2017-04-20T00:49:17.336Z,-1.78
2017-04-20T00:50:12.332Z,-1.78
2017-04-20T00:51:07.380Z,-1.80
2017-04-20T00:52:07.361Z,-1.84
2017-04-20T00:53:02.426Z,-1.83
2017-04-20T00:53:57.486Z,-1.80
2017-04-20T00:54:58.540Z,-1.80
2017-04-20T00:55:58.431Z,-1.82
2017-04-20T00:56:58.530Z,-1.85
2017-04-20T00:57:53.543Z,-1.86
2017-04-20T00:58:47.527Z,-1.90
2017-04-20T00:59:47.610Z,-1.90
2017-04-20T01:00:42.644Z,-1.88
2017-04-20T01:01:42.802Z,-1.88
2017-04-20T01:02:36.653Z,-1.89
2017-04-20T01:03:37.662Z,-1.91
2017-04-20T01:04:38.761Z,-1.96
2017-04-20T01:05:33.725Z,-1.95
2017-04-20T01:06:27.738Z,-1.98
2017-04-20T01:07:27.766Z,-1.98
2017-04-20T01:08:22.816Z,-2.02
2017-04-20T01:09:22.797Z,-2.04
2017-04-20T01:10:22.902Z,-2.04
2017-04-20T01:11:28.830Z,-2.05
2017-04-20T01:12:28.872Z,-2.06
2017-04-20T01:13:28.885Z,-2.07
2017-04-20T01:14:28.903Z,-2.08
2017-04-20T01:15:22.936Z,-2.12
2017-04-20T01:16:23.091Z,-2.12
2017-04-20T01:17:18.015Z,-2.14
2017-04-20T01:18:13.048Z,-2.14
2017-04-20T01:19:14.027Z,-2.10
2017-04-20T01:20:14.050Z,-2.05
2017-04-20T01:21:09.099Z,-2.02
2017-04-20T01:22:09.130Z,-2.01
2017-04-20T01:23:03.139Z,-2.04
2017-04-20T01:24:04.171Z,-2.12
2017-04-20T01:25:05.180Z,-2.17
2017-04-20T01:26:05.215Z,-2.24
2017-04-20T01:27:05.234Z,-2.30
2017-04-20T01:28:00.555Z,-2.32
2017-04-20T01:28:54.259Z,-2.33
2017-04-20T01:29:54.314Z,-2.32
2017-04-20T01:30:49.310Z,-2.35
2017-04-20T01:31:44.350Z,-2.34
2017-04-20T01:32:45.337Z,-2.29
2017-04-20T01:33:45.389Z,-2.28
2017-04-20T01:34:45.368Z,-2.28
2017-04-20T01:35:40.450Z,-2.30
2017-04-20T01:36:34.456Z,-2.30
2017-04-20T01:37:34.453Z,-2.31
2017-04-20T01:38:29.514Z,-2.30
2017-04-20T01:39:29.490Z,-2.31
2017-04-20T01:40:23.544Z,-2.34
2017-04-20T01:41:23.554Z,-2.36
2017-04-20T01:42:18.674Z,-2.38
2017-04-20T01:43:13.624Z,-2.38
2017-04-20T01:44:13.654Z,-2.36
2017-04-20T01:45:08.736Z,-2.32
2017-04-20T01:46:03.730Z,-2.34
2017-04-20T01:47:04.714Z,-2.40
2017-04-20T01:48:04.733Z,-2.45
2017-04-20T01:49:04.751Z,-2.54
2017-04-20T01:49:59.811Z,-2.55
2017-04-20T01:50:53.849Z,-2.56
2017-04-20T01:51:53.794Z,-2.57
2017-04-20T01:52:48.836Z,-2.58
2017-04-20T01:53:48.875Z,-2.56
2017-04-20T01:54:42.873Z,-2.56
2017-04-20T01:55:43.994Z,-2.56
2017-04-20T01:56:44.948Z,-2.57
2017-04-20T01:57:40.095Z,-2.58
2017-04-20T01:58:33.953Z,-2.58
2017-04-20T01:59:34.031Z,-2.57
2017-04-20T02:00:29.060Z,-2.56
2017-04-20T02:01:29.079Z,-2.60
2017-04-20T02:02:23.425Z,-2.60
2017-04-20T02:03:23.133Z,-2.64
2017-04-20T02:04:18.193Z,-2.69
2017-04-20T02:05:13.153Z,-2.72
2017-04-20T02:06:13.147Z,-2.74
2017-04-20T02:07:08.240Z,-2.74
2017-04-20T02:08:03.275Z,-2.74
2017-04-20T02:09:03.250Z,-2.72
2017-04-20T02:09:58.247Z,-2.68
2017-04-20T02:10:53.285Z,-2.66
2017-04-20T02:11:54.313Z,-2.67
2017-04-20T02:12:55.333Z,-2.70
2017-04-20T02:13:50.408Z,-2.72
2017-04-20T02:14:44.396Z,-2.76
2017-04-20T02:15:44.481Z,-2.74
2017-04-20T02:16:44.441Z,-2.74
2017-04-20T02:17:39.481Z,-2.74
2017-04-20T02:18:33.498Z,-2.72
2017-04-20T02:19:33.525Z,-2.72
2017-04-20T02:20:28.541Z,-2.72
2017-04-20T02:21:23.578Z,-2.73
2017-04-20T02:22:29.565Z,-2.73
2017-04-20T02:23:23.608Z,-2.70
2017-04-20T02:24:23.624Z,-2.68
2017-04-20T02:25:18.659Z,-2.70
2017-04-20T02:26:18.707Z,-2.66
2017-04-20T02:27:12.720Z,-2.70
2017-04-20T02:28:12.727Z,-2.74
2017-04-20T02:29:07.802Z,-2.82
2017-04-20T02:30:02.750Z,-2.86
2017-04-20T02:31:02.761Z,-2.90
2017-04-20T02:31:58.227Z,-2.92
2017-04-20T02:32:52.865Z,-2.96
2017-04-20T02:33:52.868Z,-2.94
2017-04-20T02:34:47.921Z,-2.99
2017-04-20T02:35:42.850Z,-3.00
2017-04-20T02:36:44.139Z,-3.00
2017-04-20T02:37:43.931Z,-3.00
2017-04-20T02:38:43.977Z,-2.95
2017-04-20T02:39:38.996Z,-2.91
2017-04-20T02:40:33.007Z,-2.92
2017-04-20T02:41:33.005Z,-2.90
2017-04-20T02:42:28.034Z,-2.94
2017-04-20T02:43:34.047Z,-2.98
2017-04-20T02:44:29.085Z,-2.99
2017-04-20T02:45:23.160Z,-3.02
2017-04-20T02:46:23.144Z,-3.02
2017-04-20T02:47:23.152Z,-2.97
2017-04-20T02:48:18.234Z,-2.95
2017-04-20T02:49:12.238Z,-2.92
2017-04-20T02:50:13.242Z,-2.90
2017-04-20T02:51:13.255Z,-2.90
2017-04-20T02:52:08.250Z,-2.88
2017-04-20T02:53:08.281Z,-2.86
2017-04-20T02:54:02.352Z,-2.82
2017-04-20T02:55:02.375Z,-2.78
2017-04-20T02:55:57.379Z,-2.80
2017-04-20T02:56:52.421Z,-2.83
2017-04-20T02:57:52.427Z,-2.85
2017-04-20T02:58:47.460Z,-2.86
2017-04-20T02:59:42.429Z,-2.85
2017-04-20T03:00:42.501Z,-2.82
2017-04-20T03:01:37.537Z,-2.78
2017-04-20T03:02:32.529Z,-2.72
2017-04-20T03:03:33.514Z,-2.70
2017-04-20T03:04:34.576Z,-2.73
2017-04-20T03:05:29.621Z,-2.78
2017-04-20T03:06:23.663Z,-2.81
2017-04-20T03:07:23.653Z,-2.86
2017-04-20T03:08:23.636Z,-2.92
2017-04-20T03:09:18.684Z,-2.98
2017-04-20T03:10:12.738Z,-2.98
2017-04-20T03:11:12.817Z,-2.93
2017-04-20T03:12:07.750Z,-2.86
2017-04-20T03:13:02.818Z,-2.83
2017-04-20T03:14:03.829Z,-2.80
2017-04-20T03:15:04.062Z,-2.76
2017-04-20T03:16:03.943Z,-2.75
2017-04-20T03:16:58.868Z,-2.78
2017-04-20T03:17:58.871Z,-2.82
2017-04-20T03:18:58.928Z,-2.89
2017-04-20T03:19:52.955Z,-2.93
2017-04-20T03:20:52.947Z,-2.92
2017-04-20T03:21:47.964Z,-2.94
2017-04-20T03:22:48.097Z,-2.92
2017-04-20T03:23:42.039Z,-2.90
2017-04-20T03:24:42.045Z,-2.93
2017-04-20T03:25:37.059Z,-2.98
2017-04-20T03:26:32.118Z,-3.04
2017-04-20T03:27:32.135Z,-3.06
2017-04-20T03:28:27.656Z,-3.06
2017-04-20T03:29:22.228Z,-3.05
2017-04-20T03:30:23.210Z,-2.98
2017-04-20T03:31:23.225Z,-2.96
2017-04-20T03:32:23.247Z,-2.93
2017-04-20T03:33:18.263Z,-2.91
2017-04-20T03:34:12.495Z,-2.90
2017-04-20T03:35:12.369Z,-2.92
2017-04-20T03:36:07.306Z,-2.95
2017-04-20T03:37:07.328Z,-2.98
2017-04-20T03:38:01.382Z,-3.03
2017-04-20T03:39:01.380Z,-3.07
2017-04-20T03:39:56.447Z,-3.09
2017-04-20T03:40:51.678Z,-3.14
2017-04-20T03:41:51.441Z,-3.20
2017-04-20T03:42:46.508Z,-3.22
2017-04-20T03:43:41.516Z,-3.22
2017-04-20T03:44:47.550Z,-3.24
2017-04-20T03:45:41.675Z,-3.28
2017-04-20T03:46:41.549Z,-3.27
2017-04-20T03:47:36.569Z,-3.25
2017-04-20T03:48:36.640Z,-3.27
2017-04-20T03:49:30.614Z,-3.28
2017-04-20T03:50:30.644Z,-3.30
2017-04-20T03:51:25.709Z,-3.29
2017-04-20T03:52:20.747Z,-3.30
2017-04-20T03:53:20.915Z,-3.33
2017-04-20T03:54:15.747Z,-3.36
2017-04-20T03:55:10.744Z,-3.38
2017-04-20T03:56:10.779Z,-3.34
2017-04-20T03:57:05.804Z,-3.32
2017-04-20T03:58:00.835Z,-3.28
2017-04-20T03:59:01.835Z,-3.21
2017-04-20T04:00:02.875Z,-3.16
2017-04-20T04:00:57.929Z,-3.16
2017-04-20T04:01:51.971Z,-3.14
2017-04-20T04:02:52.007Z,-3.12
2017-04-20T04:03:47.036Z,-3.11
2017-04-20T04:04:42.001Z,-3.10
2017-04-20T04:05:43.016Z,-3.10
2017-04-20T04:06:43.042Z,-3.15
2017-04-20T04:07:43.064Z,-3.17
2017-04-20T04:08:43.133Z,-3.19
2017-04-20T04:09:43.102Z,-3.18
2017-04-20T04:10:44.115Z,-3.20
2017-04-20T04:11:39.151Z,-3.20
2017-04-20T04:12:39.347Z,-3.24
2017-04-20T04:13:39.196Z,-3.24
2017-04-20T04:14:33.284Z,-3.25
2017-04-20T04:15:34.230Z,-3.23
2017-04-20T04:16:29.242Z,-3.22
2017-04-20T04:17:29.270Z,-3.18
2017-04-20T04:18:35.309Z,-3.17
2017-04-20T04:19:30.348Z,-3.20
2017-04-20T04:20:24.403Z,-3.18
2017-04-20T04:21:25.416Z,-3.20
2017-04-20T04:22:26.430Z,-3.17
2017-04-20T04:23:21.418Z,-3.12
2017-04-20T04:24:21.730Z,-3.08
2017-04-20T04:25:21.477Z,-3.03
2017-04-20T04:26:21.498Z,-3.04
2017-04-20T04:27:21.903Z,-3.06
2017-04-20T04:28:21.519Z,-3.12
2017-04-20T04:29:21.758Z,-3.18
2017-04-20T04:30:21.556Z,-3.16
2017-04-20T04:31:21.606Z,-3.16
2017-04-20T04:32:21.633Z,-3.00
2017-04-20T04:33:21.642Z,-2.90
2017-04-20T04:34:21.921Z,-2.90
2017-04-20T04:35:21.655Z,-2.94
2017-04-20T04:36:21.752Z,-2.86
2017-04-20T04:37:21.720Z,-2.77
2017-04-20T04:38:21.734Z,-2.72
2017-04-20T04:39:22.033Z,-2.68
2017-04-20T04:40:21.859Z,-2.69
2017-04-20T04:41:21.823Z,-2.67
2017-04-20T04:42:21.829Z,-2.68
2017-04-20T04:43:21.936Z,-2.68
2017-04-20T04:44:21.936Z,-2.72
2017-04-20T04:45:21.884Z,-2.74
2017-04-20T04:46:21.978Z,-2.76
2017-04-20T04:47:21.999Z,-2.74
2017-04-20T04:48:21.954Z,-2.68
2017-04-20T04:49:22.235Z,-2.68
2017-04-20T04:50:21.981Z,-2.68
2017-04-20T04:51:22.011Z,-2.65
2017-04-20T04:52:22.030Z,-2.61
2017-04-20T04:53:22.041Z,-2.56
2017-04-20T04:54:22.410Z,-2.56
2017-04-20T04:55:22.364Z,-2.48
2017-04-20T04:56:22.177Z,-2.46
2017-04-20T04:57:28.148Z,-2.44
2017-04-20T04:58:23.156Z,-2.42
2017-04-20T04:59:17.198Z,-2.42
2017-04-20T05:00:17.291Z,-2.44
2017-04-20T05:01:12.225Z,-2.30
2017-04-20T05:02:07.243Z,-2.22
2017-04-20T05:03:07.279Z,-2.06
2017-04-20T05:04:02.318Z,-1.94
2017-04-20T05:05:02.303Z,-1.72
2017-04-20T05:06:03.363Z,-1.46
2017-04-20T05:07:04.366Z,-1.25
2017-04-20T05:07:58.355Z,-1.19
2017-04-20T05:08:58.428Z,-0.96
2017-04-20T05:09:53.446Z,-0.76
2017-04-20T05:10:48.454Z,-0.54
2017-04-20T05:11:42.521Z,-0.26
2017-04-20T05:12:42.798Z,0.10
2017-04-20T05:13:37.539Z,0.42
2017-04-20T05:14:32.574Z,0.76
2017-04-20T05:15:32.602Z,1.10
2017-04-20T05:16:27.625Z,1.44
2017-04-20T05:17:22.634Z,1.76
2017-04-20T05:18:16.736Z,1.92
2017-04-20T05:19:17.731Z,2.18
2017-04-20T05:20:12.749Z,2.36
2017-04-20T05:21:12.767Z,2.56
2017-04-20T05:22:12.770Z,2.86
2017-04-20T05:23:12.807Z,3.06
2017-04-20T05:24:12.835Z,3.16
2017-04-20T05:25:12.840Z,3.23
2017-04-20T05:26:13.077Z,3.28
2017-04-20T05:27:12.928Z,3.38
2017-04-20T05:28:12.996Z,3.42
2017-04-20T05:29:13.128Z,3.36
2017-04-20T05:30:13.082Z,3.40
2017-04-20T05:31:13.036Z,3.30
2017-04-20T05:32:19.032Z,3.50
2017-04-20T05:33:13.141Z,3.76
2017-04-20T05:34:07.116Z,3.94
2017-04-20T05:35:07.179Z,4.18
2017-04-20T05:35:56.142Z,4.46
2017-04-20T05:36:50.209Z,4.84
2017-04-20T05:37:50.263Z,5.10
2017-04-20T05:38:44.414Z,5.28
2017-04-20T05:39:38.325Z,5.51
2017-04-20T05:40:27.385Z,5.69
2017-04-20T05:41:22.358Z,6.02
2017-04-20T05:42:28.351Z,6.30
2017-04-20T05:43:17.579Z,6.39
2017-04-20T05:44:11.460Z,6.72
2017-04-20T05:45:05.472Z,6.88
2017-04-20T05:45:59.539Z,7.03
2017-04-20T05:46:59.624Z,7.28
2017-04-20T05:47:54.594Z,7.42
2017-04-20T05:48:48.634Z,7.60
2017-04-20T05:49:48.663Z,7.65
2017-04-20T05:50:42.656Z,7.77
2017-04-20T05:51:36.730Z,7.78
2017-04-20T05:52:30.740Z,7.90
2017-04-20T05:53:25.820Z,8.06
2017-04-20T05:54:25.833Z,8.08
2017-04-20T05:55:19.854Z,7.74
2017-04-20T05:56:14.919Z,7.98
2017-04-20T05:57:08.933Z,8.34
2017-04-20T05:58:04.126Z,8.41
2017-04-20T05:58:53.269Z,8.75
2017-04-20T05:59:48.047Z,8.92
2017-04-20T06:00:48.279Z,9.05
2017-04-20T06:01:43.336Z,9.16
2017-04-20T06:02:37.289Z,9.21
2017-04-20T06:03:32.233Z,9.30
2017-04-20T06:04:27.229Z,9.38
2017-04-20T06:05:21.228Z,9.54
2017-04-20T06:06:15.252Z,9.78
2017-04-20T06:07:10.317Z,10.00
2017-04-20T06:07:59.344Z,10.11
2017-04-20T06:08:53.795Z,10.30
2017-04-20T06:09:59.451Z,10.49
2017-04-20T06:10:53.466Z,10.16
2017-04-20T06:11:48.462Z,10.01
2017-04-20T06:12:42.558Z,9.91
2017-04-20T06:13:36.561Z,9.59
2017-04-20T06:14:30.653Z,9.63
2017-04-20T06:15:24.665Z,9.54
2017-04-20T06:16:25.699Z,9.20
2017-04-20T06:17:19.896Z,9.08
2017-04-20T06:18:14.764Z,8.66
2017-04-20T06:19:14.803Z,8.31
2017-04-20T06:20:09.930Z,8.27
2017-04-20T06:20:57.870Z,7.89
2017-04-20T06:21:57.958Z,7.58
2017-04-20T06:22:52.951Z,7.58
2017-04-20T06:23:41.008Z,7.87
2017-04-20T06:24:29.086Z,8.37
2017-04-20T06:25:23.143Z,8.96
2017-04-20T06:26:11.146Z,9.20
2017-04-20T06:27:00.192Z,9.26
2017-04-20T06:27:48.259Z,9.54
2017-04-20T06:28:36.268Z,10.16
2017-04-20T06:29:25.602Z,10.63
2017-04-20T06:30:14.365Z,10.88
2017-04-20T06:31:02.468Z,11.05
2017-04-20T06:31:50.444Z,11.26
2017-04-20T06:32:38.471Z,11.14
2017-04-20T06:33:33.575Z,11.25
2017-04-20T06:34:27.605Z,11.45
2017-04-20T06:35:22.645Z,11.53
2017-04-20T06:36:10.750Z,11.88
2017-04-20T06:36:58.732Z,12.20
2017-04-20T06:37:47.852Z,12.34
2017-04-20T06:38:36.812Z,12.26
2017-04-20T06:39:31.870Z,12.22
2017-04-20T06:40:25.904Z,12.24
2017-04-20T06:41:21.209Z,12.46
2017-04-20T06:42:15.035Z,12.44
2017-04-20T06:43:04.053Z,12.36
2017-04-20T06:44:04.074Z,11.92
2017-04-20T06:44:58.141Z,12.28
2017-04-20T06:45:46.172Z,12.50
2017-04-20T06:46:34.239Z,12.44
2017-04-20T06:47:29.258Z,12.03
2017-04-20T06:48:29.282Z,11.54
2017-04-20T06:49:17.349Z,11.10
2017-04-20T06:50:06.363Z,10.85
2017-04-20T06:50:54.438Z,10.51
2017-04-20T06:51:42.780Z,10.47
2017-04-20T06:52:43.520Z,10.67
2017-04-20T06:53:31.552Z,10.67
2017-04-20T06:54:20.639Z,10.56
2017-04-20T06:55:09.049Z,10.68
2017-04-20T06:55:56.722Z,10.85
2017-04-20T06:56:50.775Z,10.78
2017-04-20T06:57:50.802Z,10.89
2017-04-20T06:58:45.803Z,11.28
2017-04-20T06:59:40.867Z,11.37
2017-04-20T07:00:29.892Z,11.35
2017-04-20T07:01:23.929Z,11.39
2017-04-20T07:02:18.075Z,10.96
2017-04-20T07:03:07.315Z,11.14
2017-04-20T07:04:01.193Z,11.45
2017-04-20T07:05:01.162Z,11.96
2017-04-20T07:05:55.158Z,12.07
2017-04-20T07:06:43.247Z,12.11
2017-04-20T07:07:32.328Z,12.19
2017-04-20T07:08:26.346Z,12.02
2017-04-20T07:09:26.367Z,12.04
2017-04-20T07:10:15.434Z,11.83
2017-04-20T07:11:09.738Z,12.02
2017-04-20T07:12:09.465Z,12.44
2017-04-20T07:13:04.872Z,12.68
2017-04-20T07:13:59.537Z,13.00
2017-04-20T07:14:59.631Z,13.35
2017-04-20T07:15:54.675Z,13.56
2017-04-20T07:16:49.740Z,13.64
2017-04-20T07:17:43.762Z,13.42
2017-04-20T07:18:45.237Z,13.64
2017-04-20T07:19:39.843Z,14.04
2017-04-20T07:20:33.872Z,13.92
2017-04-20T07:21:27.934Z,13.47
2017-04-20T07:22:22.961Z,13.39
2017-04-20T07:23:17.139Z,13.02
2017-04-20T07:24:06.445Z,12.56
2017-04-20T07:25:01.109Z,11.76
2017-04-20T07:25:50.158Z,11.47
2017-04-20T07:26:44.323Z,11.51
2017-04-20T07:27:33.269Z,11.86
2017-04-20T07:28:21.314Z,11.90
2017-04-20T07:29:21.358Z,12.12
2017-04-20T07:30:16.381Z,11.74
2017-04-20T07:31:05.437Z,11.90
2017-04-20T07:31:53.446Z,12.10
2017-04-20T07:32:42.543Z,12.34
2017-04-20T07:33:36.573Z,12.30
2017-04-20T07:34:31.697Z,12.44
2017-04-20T07:35:26.659Z,12.54
2017-04-20T07:36:15.769Z,12.34
2017-04-20T07:37:15.777Z,12.00
2017-04-20T07:38:09.831Z,12.15
2017-04-20T07:38:57.866Z,12.46
2017-04-20T07:39:51.919Z,12.69
2017-04-20T07:40:40.957Z,12.55
2017-04-20T07:41:35.988Z,12.27
2017-04-20T07:42:31.061Z,12.08
2017-04-20T07:43:31.183Z,12.02
2017-04-20T07:44:26.172Z,12.42
2017-04-20T07:45:14.231Z,12.62
2017-04-20T07:46:03.242Z,13.03
2017-04-20T07:47:03.259Z,13.26
2017-04-20T07:47:52.327Z,13.01
2017-04-20T07:48:52.496Z,12.33
2017-04-20T07:49:41.445Z,12.04
2017-04-20T07:50:35.659Z,11.68
2017-04-20T07:51:29.572Z,11.42
2017-04-20T07:52:23.567Z,11.15
2017-04-20T07:53:11.643Z,11.23
2017-04-20T07:53:59.640Z,11.30
2017-04-20T07:54:48.741Z,11.54
2017-04-20T07:55:44.285Z,11.68
2017-04-20T07:56:43.854Z,11.96
2017-04-20T07:57:32.894Z,12.42
2017-04-20T07:58:33.185Z,13.04
2017-04-20T07:59:32.989Z,13.34
2017-04-20T08:00:28.097Z,13.12
2017-04-20T08:01:17.100Z,12.81
2017-04-20T08:02:06.190Z,12.72
2017-04-20T08:02:55.177Z,12.73
2017-04-20T08:03:44.245Z,12.44
2017-04-20T08:04:38.288Z,12.87
2017-04-20T08:05:38.340Z,13.34
2017-04-20T08:06:38.410Z,13.07
2017-04-20T08:07:33.667Z,12.96
2017-04-20T08:08:27.467Z,12.76
2017-04-20T08:09:16.538Z,12.58
2017-04-20T08:10:11.580Z,12.62
2017-04-20T08:11:06.600Z,12.06
2017-04-20T08:12:07.898Z,11.80
2017-04-20T08:13:01.732Z,11.99
2017-04-20T08:13:49.775Z,12.11
2017-04-20T08:14:44.814Z,12.06
2017-04-20T08:15:39.865Z,12.40
2017-04-20T08:16:35.007Z,12.74
2017-04-20T08:17:34.963Z,13.24
2017-04-20T08:18:29.020Z,13.62
2017-04-20T08:19:18.071Z,13.43
2017-04-20T08:20:07.146Z,12.96
2017-04-20T08:21:01.159Z,12.40
2017-04-20T08:21:56.239Z,11.71
2017-04-20T08:22:51.619Z,12.11
2017-04-20T08:23:40.307Z,12.42
2017-04-20T08:24:29.649Z,12.22
2017-04-20T08:25:24.400Z,12.02
2017-04-20T08:26:13.441Z,11.82
2017-04-20T08:27:13.535Z,11.76
2017-04-20T08:28:08.967Z,11.72
2017-04-20T08:28:58.054Z,11.42
2017-04-20T08:29:46.671Z,10.77
2017-04-20T08:30:35.753Z,10.30
2017-04-20T08:31:24.946Z,10.16
2017-04-20T08:32:19.829Z,10.26
2017-04-20T08:33:19.852Z,10.63
2017-04-20T08:34:08.968Z,10.90
2017-04-20T08:35:02.960Z,10.65
2017-04-20T08:36:02.982Z,10.00
2017-04-20T08:36:57.037Z,9.56
2017-04-20T08:37:57.158Z,9.57
2017-04-20T08:38:51.147Z,10.16
2017-04-20T08:39:45.233Z,10.79
2017-04-20T08:40:39.250Z,11.34
2017-04-20T08:41:33.328Z,11.50
2017-04-20T08:42:27.389Z,11.98
2017-04-20T08:43:16.460Z,12.36
2017-04-20T08:44:17.007Z,12.56
2017-04-20T08:45:10.489Z,12.42
2017-04-20T08:45:58.573Z,12.42
2017-04-20T08:46:46.638Z,12.49
2017-04-20T08:47:41.636Z,12.40
2017-04-20T08:48:36.659Z,12.72
2017-04-20T08:49:30.722Z,12.85
2017-04-20T08:50:24.779Z,12.40
2017-04-20T08:51:19.809Z,12.04
2017-04-20T08:52:14.913Z,11.94
2017-04-20T08:53:08.932Z,11.84
2017-04-20T08:53:58.361Z,11.78
2017-04-20T08:54:47.057Z,11.51
2017-04-20T08:55:41.103Z,11.40
2017-04-20T08:56:29.184Z,11.53
2017-04-20T08:57:23.245Z,11.47
2017-04-20T08:58:18.255Z,11.72
2017-04-20T08:59:13.337Z,11.62
2017-04-20T09:00:08.473Z,11.67
2017-04-20T09:00:57.452Z,11.86
2017-04-20T09:01:46.478Z,11.98
2017-04-20T09:02:35.570Z,12.03
2017-04-20T09:03:29.551Z,11.94
2017-04-20T09:04:23.627Z,12.23
2017-04-20T09:05:18.017Z,12.50
2017-04-20T09:06:12.717Z,12.87
2017-04-20T09:07:06.732Z,12.98
2017-04-20T09:08:06.868Z,12.21
2017-04-20T09:09:00.771Z,11.84
2017-04-20T09:09:55.960Z,12.22
2017-04-20T09:10:45.236Z,12.50
2017-04-20T09:11:39.039Z,12.68
2017-04-20T09:12:33.053Z,12.66
2017-04-20T09:13:27.395Z,12.52
2017-04-20T09:14:21.149Z,12.56
2017-04-20T09:15:15.214Z,12.70
2017-04-20T09:16:10.357Z,13.03
2017-04-20T09:17:04.326Z,12.92
2017-04-20T09:17:58.341Z,12.75
2017-04-20T09:18:58.705Z,12.72
2017-04-20T09:19:58.474Z,11.78
2017-04-20T09:20:53.522Z,11.65
2017-04-20T09:21:42.549Z,11.20
2017-04-20T09:22:37.615Z,11.66
2017-04-20T09:23:32.651Z,12.26
2017-04-20T09:24:32.750Z,12.38
2017-04-20T09:25:21.774Z,12.37
2017-04-20T09:26:10.877Z,12.62
2017-04-20T09:26:59.887Z,13.14
2017-04-20T09:27:48.938Z,13.50
2017-04-20T09:28:43.000Z,13.54
2017-04-20T09:29:37.029Z,13.85
2017-04-20T09:30:37.112Z,12.85
2017-04-20T09:31:37.440Z,12.21
2017-04-20T09:32:31.658Z,12.00
2017-04-20T09:33:20.240Z,11.64
2017-04-20T09:34:15.378Z,12.17
2017-04-20T09:35:09.629Z,12.42
2017-04-20T09:36:09.425Z,12.59
2017-04-20T09:36:58.456Z,12.76
2017-04-20T09:37:53.778Z,12.50
2017-04-20T09:38:48.549Z,12.62
2017-04-20T09:39:42.669Z,12.48
2017-04-20T09:40:36.667Z,12.36
2017-04-20T09:41:30.757Z,12.44
2017-04-20T09:42:18.856Z,11.99
2017-04-20T09:43:13.135Z,11.80
2017-04-20T09:44:12.884Z,12.10
2017-04-20T09:45:02.082Z,12.34
2017-04-20T09:45:56.944Z,12.60
2017-04-20T09:46:51.053Z,12.94
2017-04-20T09:47:45.064Z,13.60
2017-04-20T09:48:39.211Z,13.65
2017-04-20T09:49:28.172Z,13.91
2017-04-20T09:50:22.255Z,14.20
2017-04-20T09:51:16.316Z,14.74
2017-04-20T09:52:10.381Z,15.02
2017-04-20T09:53:04.634Z,14.86
2017-04-20T09:54:05.471Z,14.90
2017-04-20T09:54:54.511Z,14.78
2017-04-20T09:55:48.531Z,14.61
2017-04-20T09:56:42.623Z,14.25
2017-04-20T09:57:36.653Z,13.77
2017-04-20T09:58:25.762Z,13.53
2017-04-20T09:59:25.752Z,12.83
2017-04-20T10:00:19.840Z,12.74
2017-04-20T10:01:13.872Z,13.06
2017-04-20T10:02:13.952Z,13.42
2017-04-20T10:03:07.950Z,13.09
2017-04-20T10:04:01.997Z,12.66
2017-04-20T10:04:51.285Z,12.37
2017-04-20T10:05:45.144Z,12.63
2017-04-20T10:06:45.211Z,12.67
2017-04-20T10:07:40.255Z,13.19
2017-04-20T10:08:35.335Z,13.52
2017-04-20T10:09:35.344Z,14.00
2017-04-20T10:10:29.733Z,14.46
2017-04-20T10:11:29.461Z,14.84
2017-04-20T10:12:23.536Z,15.04
2017-04-20T10:13:23.559Z,15.53
2017-04-20T10:14:17.622Z,15.82
2017-04-20T10:15:05.640Z,15.77
2017-04-20T10:16:06.017Z,15.40
2017-04-20T10:16:53.758Z,15.18
2017-04-20T10:17:41.840Z,15.11
2017-04-20T10:18:30.880Z,14.43
2017-04-20T10:19:24.941Z,14.10
2017-04-20T10:20:12.936Z,13.73
2017-04-20T10:21:08.433Z,14.02
2017-04-20T10:22:03.129Z,13.88
2017-04-20T10:22:57.144Z,12.99
2017-04-20T10:23:46.201Z,12.68
2017-04-20T10:24:41.240Z,13.28
2017-04-20T10:25:35.324Z,13.69
2017-04-20T10:26:29.368Z,13.68
2017-04-20T10:27:29.421Z,14.13
2017-04-20T10:28:23.491Z,14.38
2017-04-20T10:29:12.542Z,14.84
2017-04-20T10:30:07.577Z,15.32
2017-04-20T10:31:01.651Z,14.60
2017-04-20T10:31:55.746Z,14.54
2017-04-20T10:32:44.730Z,14.86
2017-04-20T10:33:39.789Z,15.01
2017-04-20T10:34:40.851Z,15.62
2017-04-20T10:35:34.910Z,15.88
2017-04-20T10:36:23.053Z,15.91
2017-04-20T10:37:17.026Z,15.48
2017-04-20T10:38:05.063Z,14.80
2017-04-20T10:39:00.528Z,14.16
2017-04-20T10:40:52.285Z,14.53
2017-04-20T10:41:46.266Z,14.48
2017-04-20T10:42:46.346Z,14.16
2017-04-20T10:43:35.397Z,14.21
2017-04-20T10:44:29.423Z,14.30
2017-04-20T10:45:18.484Z,13.86
2017-04-20T10:46:06.543Z,14.05
2017-04-20T10:47:01.681Z,14.17
2017-04-20T10:47:55.634Z,14.37
2017-04-20T10:48:55.748Z,14.22
2017-04-20T10:49:50.801Z,14.38
2017-04-20T10:50:44.834Z,14.54
2017-04-20T10:51:38.857Z,14.80
2017-04-20T10:52:27.942Z,14.88
2017-04-20T10:53:21.954Z,14.82
2017-04-20T10:54:22.036Z,14.86
2017-04-20T10:55:17.048Z,14.62
2017-04-20T10:56:05.130Z,14.50
2017-04-20T10:57:05.204Z,14.52
2017-04-20T10:57:54.297Z,14.80
2017-04-20T10:58:48.270Z,14.96
2017-04-20T10:59:43.357Z,14.50
2017-04-20T11:00:37.384Z,14.28
2017-04-20T11:01:31.448Z,14.12
2017-04-20T11:02:26.480Z,14.47
2017-04-20T11:03:20.537Z,14.15
2017-04-20T11:04:14.638Z,13.60
2017-04-20T11:05:09.650Z,13.55
2017-04-20T11:05:58.727Z,14.05
2017-04-20T11:06:47.774Z,14.32
2017-04-20T11:07:42.838Z,14.66
2017-04-20T11:08:36.908Z,14.26
2017-04-20T11:09:31.170Z,14.14
2017-04-20T11:10:26.251Z,13.98
2017-04-20T11:11:20.029Z,14.30
2017-04-20T11:12:20.114Z,14.31
2017-04-20T11:13:09.132Z,14.24
2017-04-20T11:14:04.164Z,14.41
2017-04-20T11:14:58.415Z,14.76
2017-04-20T11:15:53.292Z,14.89
2017-04-20T11:16:42.381Z,14.56
2017-04-20T11:17:30.436Z,14.25
2017-04-20T11:18:25.656Z,13.81
2017-04-20T11:19:14.567Z,13.89
2017-04-20T11:20:14.559Z,14.20
2017-04-20T11:21:09.667Z,14.33
2017-04-20T11:22:09.675Z,14.55
2017-04-20T11:22:58.755Z,14.91
2017-04-20T11:23:53.801Z,15.32
2017-04-20T11:24:53.812Z,15.30
2017-04-20T11:25:47.874Z,15.57
2017-04-20T11:26:36.938Z,15.99
2017-04-20T11:27:26.100Z,15.84
2017-04-20T11:28:20.052Z,15.47
2017-04-20T11:29:14.122Z,15.10
2017-04-20T11:30:08.195Z,14.93
2017-04-20T11:30:57.228Z,15.25
2017-04-20T11:31:46.291Z,15.26
2017-04-20T11:32:40.367Z,15.38
2017-04-20T11:33:34.414Z,15.74
2017-04-20T11:34:28.455Z,15.82
2017-04-20T11:35:17.570Z,15.80
2017-04-20T11:36:11.567Z,14.80
2017-04-20T11:37:05.652Z,14.12
2017-04-20T11:37:59.681Z,14.20
2017-04-20T11:38:48.838Z,14.47
2017-04-20T11:39:37.808Z,14.70
2017-04-20T11:40:31.859Z,15.12
2017-04-20T11:41:20.944Z,15.25
2017-04-20T11:42:14.950Z,15.32
2017-04-20T11:43:04.031Z,15.29
2017-04-20T11:43:58.137Z,15.62
2017-04-20T11:44:58.115Z,15.97
2017-04-20T11:45:52.161Z,15.80
2017-04-20T11:46:46.235Z,15.60
2017-04-20T11:47:41.301Z,15.78
2017-04-20T11:48:35.351Z,16.01
2017-04-20T11:49:23.433Z,16.40
2017-04-20T11:50:17.459Z,16.72
2017-04-20T11:51:06.566Z,16.42
2017-04-20T11:51:55.575Z,15.84
2017-04-20T11:52:55.622Z,15.53
2017-04-20T11:53:44.709Z,15.58
2017-04-20T11:54:44.747Z,15.18
2017-04-20T11:55:38.792Z,15.11
2017-04-20T11:56:26.857Z,15.13
2017-04-20T11:57:20.911Z,15.04
2017-04-20T11:58:15.971Z,15.16